Time;durP1;ratioP1;P1;durP2;ratioP2;P2;SDS_P1;SDS_P2;PMS_P1;PMS_P2;Temp;Humidity;BMP_temperature;BMP_pressure;BME280_temperature;BME280_humidity;BME280_pressure;Samples;Min_cycle;Max_cycle;Signal;HPM_P1;HPM_P2
2023/01/20 00:01:22;;;;;;;1.38;1.27;;;;;7.90;100808.00;;;;5065892;28;20653;-75
2023/01/20 00:03:49;;;;;;;1.65;1.30;;;;;7.80;100810.00;;;;5054320;28;20199;-75
2023/01/20 00:06:17;;;;;;;3.10;1.85;;;;;7.80;100810.00;;;;5060802;28;20528;-75
2023/01/20 00:08:49;;;;;;;2.42;1.75;;;;;7.80;100811.00;;;;5050507;28;20195;-75
2023/01/20 00:11:17;;;;;;;1.75;1.40;;;;;7.70;100810.00;;;;5050929;28;20210;-75
2023/01/20 00:13:44;;;;;;;2.80;1.70;;;;;7.70;100805.00;;;;5050523;28;20195;-75
2023/01/20 00:16:12;;;;;;;2.33;1.77;;;;;7.70;100810.00;;;;5050057;28;20578;-75
2023/01/20 00:18:40;;;;;;;2.10;1.60;;;;;7.60;100813.00;;;;5054808;28;20661;-75
2023/01/20 00:21:10;;;;;;;2.88;2.15;;;;;7.60;100812.00;;;;5069672;28;20199;-76
2023/01/20 00:23:38;;;;;;;2.13;1.77;;;;;7.60;100820.00;;;;5069770;28;20214;-75
2023/01/20 00:26:08;;;;;;;2.17;1.80;;;;;7.60;100809.00;;;;5068923;28;20615;-76
2023/01/20 00:28:36;;;;;;;2.00;1.65;;;;;7.60;100818.00;;;;5062106;28;20210;-75
2023/01/20 00:31:15;;;;;;;3.65;2.45;;;;;7.60;100812.00;;;;5068940;28;20211;-75
2023/01/20 00:33:43;;;;;;;3.20;2.55;;;;;7.60;100823.00;;;;5069462;28;20197;-75
2023/01/20 00:36:12;;;;;;;3.53;2.83;;;;;7.70;100826.00;;;;5069619;28;20214;-75
2023/01/20 00:38:39;;;;;;;3.78;2.92;;;;;7.70;100822.00;;;;5066768;28;20668;-75
2023/01/20 00:41:08;;;;;;;6.10;3.17;;;;;7.70;100822.00;;;;5064455;28;20196;-75
2023/01/20 00:43:36;;;;;;;3.58;2.75;;;;;7.70;100829.00;;;;5069745;28;20217;-75
2023/01/20 00:46:04;;;;;;;4.53;3.75;;;;;7.80;100825.00;;;;5068880;28;20242;-75
2023/01/20 00:48:31;;;;;;;4.50;3.58;;;;;7.80;100822.00;;;;5064537;28;20191;-75
2023/01/20 00:50:59;;;;;;;4.18;3.47;;;;;7.80;100823.00;;;;5048865;28;20207;-75
2023/01/20 00:53:26;;;;;;;4.95;3.65;;;;;7.90;100827.00;;;;5063994;28;20222;-75
2023/01/20 00:55:53;;;;;;;4.82;4.20;;;;;7.90;100833.00;;;;5050095;28;20200;-75
2023/01/20 00:58:22;;;;;;;4.90;4.07;;;;;7.90;100830.00;;;;5065770;28;20198;-75
2023/01/20 01:00:51;;;;;;;6.68;4.80;;;;;7.90;100831.00;;;;5068196;28;20225;-75
2023/01/20 01:03:18;;;;;;;7.60;5.13;;;;;7.90;100837.00;;;;5053175;28;20207;-75
2023/01/20 01:05:46;;;;;;;6.00;4.82;;;;;7.90;100844.00;;;;5049720;28;20227;-75
2023/01/20 01:08:13;;;;;;;7.40;5.22;;;;;7.90;100844.00;;;;5049247;28;20596;-75
2023/01/20 01:10:41;;;;;;;6.07;4.97;;;;;7.90;100844.00;;;;5066825;28;20207;-75
2023/01/20 01:13:09;;;;;;;6.63;5.20;;;;;7.90;100846.00;;;;5069718;28;20191;-75
2023/01/20 01:15:39;;;;;;;6.35;4.80;;;;;7.90;100853.00;;;;5050362;28;20215;-75
2023/01/20 01:18:06;;;;;;;5.93;4.50;;;;;7.90;100848.00;;;;5049260;28;20673;-75
2023/01/20 01:20:34;;;;;;;6.80;5.15;;;;;8.00;100847.00;;;;5049950;28;20563;-75
2023/01/20 01:23:01;;;;;;;8.48;5.30;;;;;8.00;100850.00;;;;5048898;28;20658;-75
2023/01/20 01:25:28;;;;;;;6.40;5.10;;;;;8.00;100850.00;;;;5060135;28;20219;-75
2023/01/20 01:27:55;;;;;;;7.30;5.47;;;;;7.90;100854.00;;;;5048664;28;20215;-75
2023/01/20 01:30:23;;;;;;;10.45;5.78;;;;;7.90;100858.00;;;;5049903;28;20206;-75
2023/01/20 01:32:51;;;;;;;6.57;5.15;;;;;7.90;100856.00;;;;5049425;28;20681;-75
2023/01/20 01:35:18;;;;;;;5.70;4.72;;;;;7.90;100860.00;;;;5049983;28;20681;-75
2023/01/20 01:37:46;;;;;;;6.38;5.03;;;;;7.90;100857.00;;;;5048503;28;20211;-75
2023/01/20 01:40:13;;;;;;;8.18;5.80;;;;;7.90;100860.00;;;;5059198;28;20196;-75
2023/01/20 01:42:40;;;;;;;7.13;5.35;;;;;7.90;100867.00;;;;5048460;28;20211;-75
2023/01/20 01:45:28;;;;;;;8.45;5.68;;;;;7.80;100867.00;;;;5056588;28;20223;-75
2023/01/20 01:48:02;;;;;;;7.57;5.80;;;;;7.90;100860.00;;;;5067729;28;20582;-75
2023/01/20 01:50:36;;;;;;;7.45;5.45;;;;;7.90;100866.00;;;;5056976;28;20198;-76
2023/01/20 01:53:04;;;;;;;6.80;5.57;;;;;7.90;100866.00;;;;5056253;28;20199;-75
2023/01/20 01:55:37;;;;;;;9.25;6.68;;;;;7.90;100881.00;;;;5051846;28;20199;-75
2023/01/20 01:58:07;;;;;;;7.72;6.10;;;;;7.90;100881.00;;;;5048876;28;20204;-75
2023/01/20 02:00:34;;;;;;;8.25;6.00;;;;;7.90;100879.00;;;;5049374;28;20199;-75
2023/01/20 02:03:03;;;;;;;9.02;6.30;;;;;8.00;100885.00;;;;5058388;28;20194;-75
2023/01/20 02:05:31;;;;;;;10.50;6.70;;;;;8.00;100888.00;;;;5053702;28;20223;-75
2023/01/20 02:07:59;;;;;;;10.60;7.25;;;;;8.00;100885.00;;;;5047851;28;20200;-75
2023/01/20 02:10:26;;;;;;;11.02;7.15;;;;;8.00;100882.00;;;;5063090;28;20268;-75
2023/01/20 02:12:54;;;;;;;13.18;8.30;;;;;8.00;100882.00;;;;5068067;28;20195;-75
2023/01/20 02:15:27;;;;;;;13.15;8.60;;;;;8.00;100892.00;;;;5053481;28;20195;-75
2023/01/20 02:18:16;;;;;;;13.02;8.02;;;;;8.00;100881.00;;;;5048523;28;20203;-75
2023/01/20 02:21:14;;;;;;;11.27;7.30;;;;;7.90;100885.00;;;;5048043;28;20196;-75
2023/01/20 02:24:09;;;;;;;13.82;8.35;;;;;7.90;100895.00;;;;5067263;28;20206;-75
2023/01/20 02:26:53;;;;;;;13.80;9.15;;;;;7.90;100892.00;;;;5014458;28;20231;-75
2023/01/20 02:29:55;;;;;;;16.45;9.55;;;;;7.90;100885.00;;;;5046868;28;20211;-75
2023/01/20 02:32:34;;;;;;;14.32;8.77;;;;;8.00;100881.00;;;;5063332;28;20194;-75
2023/01/20 02:35:08;;;;;;;14.45;9.45;;;;;8.00;100884.00;;;;5047819;28;20205;-75
2023/01/20 02:37:43;;;;;;;15.82;9.40;;;;;8.00;100898.00;;;;5048000;28;20676;-75
2023/01/20 02:40:22;;;;;;;16.60;9.38;;;;;8.00;100896.00;;;;5046534;28;20208;-75
2023/01/20 02:42:56;;;;;;;16.27;9.85;;;;;8.10;100894.00;;;;5047868;28;20215;-75
2023/01/20 02:45:28;;;;;;;16.63;10.05;;;;;8.10;100889.00;;;;5047261;28;20219;-75
2023/01/20 02:48:01;;;;;;;18.73;10.85;;;;;8.10;100881.00;;;;5047334;28;20226;-75
2023/01/20 02:50:40;;;;;;;16.20;10.27;;;;;8.10;100880.00;;;;5052548;28;20290;-75
2023/01/20 02:53:09;;;;;;;18.98;11.27;;;;;8.10;100885.00;;;;5054954;28;20199;-75
2023/01/20 02:55:41;;;;;;;19.42;10.10;;;;;8.10;100883.00;;;;5050091;28;20238;-75
2023/01/20 02:58:11;;;;;;;16.33;10.13;;;;;8.10;100889.00;;;;5063558;28;20199;-75
2023/01/20 03:00:44;;;;;;;17.65;10.25;;;;;8.10;100891.00;;;;5053068;28;20207;-75
2023/01/20 03:03:16;;;;;;;19.42;10.45;;;;;8.10;100892.00;;;;5051430;28;20587;-75
2023/01/20 03:05:49;;;;;;;19.02;10.88;;;;;8.10;100887.00;;;;5046612;28;20579;-75
2023/01/20 03:08:17;;;;;;;16.50;9.50;;;;;8.10;100891.00;;;;5048589;28;20196;-75
2023/01/20 03:10:47;;;;;;;18.45;10.43;;;;;8.10;100905.00;;;;5047457;28;20211;-75
2023/01/20 03:13:21;;;;;;;19.13;11.00;;;;;8.20;100900.00;;;;5047390;28;20696;-75
2023/01/20 03:15:57;;;;;;;20.48;11.57;;;;;8.10;100894.00;;;;5061414;28;20198;-75
2023/01/20 03:18:28;;;;;;;16.38;10.63;;;;;8.10;100903.00;;;;5056834;28;20195;-75
2023/01/20 03:20:55;;;;;;;17.58;10.02;;;;;8.10;100903.00;;;;5067090;28;20192;-75
2023/01/20 03:23:23;;;;;;;18.30;10.02;;;;;8.10;100905.00;;;;5067162;28;20195;-75
2023/01/20 03:25:51;;;;;;;22.13;11.63;;;;;8.10;100914.00;;;;5053135;28;20223;-75
2023/01/20 03:28:18;;;;;;;20.23;10.68;;;;;8.10;100901.00;;;;5058716;28;20232;-75
2023/01/20 03:30:45;;;;;;;20.38;11.05;;;;;8.10;100905.00;;;;5067257;28;20567;-75
2023/01/20 03:33:14;;;;;;;19.05;10.73;;;;;8.10;100904.00;;;;5067956;28;20203;-75
2023/01/20 03:35:43;;;;;;;18.13;10.45;;;;;8.10;100913.00;;;;5056146;28;20219;-75
2023/01/20 03:38:10;;;;;;;23.15;11.73;;;;;8.10;100911.00;;;;5047740;28;20196;-75
2023/01/20 03:40:46;;;;;;;23.02;12.27;;;;;8.10;100909.00;;;;5047675;28;20204;-75
2023/01/20 03:43:18;;;;;;;20.27;10.45;;;;;8.10;100914.00;;;;5047917;28;20219;-75
2023/01/20 03:45:55;;;;;;;20.00;11.00;;;;;8.00;100906.00;;;;5057192;28;20565;-75
2023/01/20 03:48:31;;;;;;;19.30;10.75;;;;;8.00;100902.00;;;;5066832;28;20206;-75
2023/01/20 03:51:07;;;;;;;19.17;10.57;;;;;8.10;100910.00;;;;5063661;28;20191;-75
2023/01/20 03:53:44;;;;;;;20.70;10.98;;;;;8.10;100906.00;;;;5057057;28;20226;-75
2023/01/20 03:56:17;;;;;;;20.48;11.48;;;;;8.10;100908.00;;;;5055020;28;20199;-75
2023/01/20 03:58:46;;;;;;;23.30;12.45;;;;;8.10;100909.00;;;;5062092;28;20284;-75
2023/01/20 04:01:17;;;;;;;21.70;11.77;;;;;8.10;100915.00;;;;5050739;28;20200;-75
2023/01/20 04:03:46;;;;;;;20.85;10.88;;;;;8.10;100917.00;;;;5054714;28;20496;-75
2023/01/20 04:06:17;;;;;;;22.10;10.25;;;;;8.20;100920.00;;;;5058865;28;20229;-75
2023/01/20 04:08:49;;;;;;;22.52;10.93;;;;;8.20;100915.00;;;;5066807;28;20208;-75
2023/01/20 04:11:17;;;;;;;20.58;10.57;;;;;8.20;100915.00;;;;5050671;28;20610;-75
2023/01/20 04:13:44;;;;;;;20.33;11.77;;;;;8.20;100921.00;;;;5050639;28;20542;-75
2023/01/20 04:16:15;;;;;;;20.50;10.80;;;;;8.20;100929.00;;;;5050217;28;20199;-75
2023/01/20 04:18:45;;;;;;;20.63;11.18;;;;;8.20;100928.00;;;;5050482;28;20673;-75
2023/01/20 04:21:23;;;;;;;23.27;11.18;;;;;8.20;100933.00;;;;5051651;28;20196;-75
2023/01/20 04:23:55;;;;;;;20.17;11.02;;;;;8.20;100938.00;;;;5050311;28;20282;-75
2023/01/20 04:26:22;;;;;;;18.85;10.63;;;;;8.20;100936.00;;;;5059134;28;20219;-76
2023/01/20 04:28:50;;;;;;;21.58;11.05;;;;;8.20;100930.00;;;;5051133;28;20203;-76
2023/01/20 04:31:17;;;;;;;20.77;11.32;;;;;8.20;100939.00;;;;5050102;28;20206;-76
2023/01/20 04:33:45;;;;;;;20.13;10.43;;;;;8.20;100929.00;;;;5050018;28;20196;-75
2023/01/20 04:36:12;;;;;;;19.65;10.25;;;;;8.20;100934.00;;;;5065028;28;20199;-76
2023/01/20 04:38:40;;;;;;;20.30;10.13;;;;;8.20;100934.00;;;;5058307;28;20196;-76
2023/01/20 04:41:11;;;;;;;20.67;10.98;;;;;8.20;100937.00;;;;5049525;28;20207;-76
2023/01/20 04:43:38;;;;;;;17.67;9.65;;;;;8.20;100934.00;;;;5050561;28;20203;-76
2023/01/20 04:46:06;;;;;;;18.58;10.32;;;;;8.20;100941.00;;;;5064504;28;20242;-76
2023/01/20 04:48:33;;;;;;;19.80;10.88;;;;;8.20;100941.00;;;;5068418;28;20585;-75
2023/01/20 04:51:04;;;;;;;18.73;11.00;;;;;8.20;100941.00;;;;5067824;28;20696;-76
2023/01/20 04:53:31;;;;;;;19.77;11.32;;;;;8.20;100944.00;;;;5057411;28;20321;-76
2023/01/20 04:56:00;;;;;;;24.00;12.48;;;;;8.20;100941.00;;;;5065054;28;20199;-76
2023/01/20 04:58:27;;;;;;;22.27;11.80;;;;;8.20;100940.00;;;;5064340;28;20184;-76
2023/01/20 05:00:55;;;;;;;25.55;13.35;;;;;8.20;100949.00;;;;5048520;28;20200;-76
2023/01/20 05:03:22;;;;;;;23.27;12.45;;;;;8.20;100944.00;;;;5048020;28;20188;-76
2023/01/20 05:05:53;;;;;;;23.60;11.65;;;;;8.20;100948.00;;;;5048069;28;20222;-76
2023/01/20 05:08:21;;;;;;;21.23;11.02;;;;;8.20;100949.00;;;;5049339;28;20195;-76
2023/01/20 05:10:48;;;;;;;26.15;13.02;;;;;8.20;100947.00;;;;5048370;28;20704;-76
2023/01/20 05:13:17;;;;;;;23.42;12.25;;;;;8.20;100951.00;;;;5049677;28;20633;-76
2023/01/20 05:15:45;;;;;;;20.92;12.07;;;;;8.20;100953.00;;;;5066568;28;20207;-76
2023/01/20 05:18:12;;;;;;;22.58;12.60;;;;;8.20;100959.00;;;;5051879;28;20203;-76
2023/01/20 05:20:39;;;;;;;23.20;13.18;;;;;8.20;100956.00;;;;5057031;28;20207;-76
2023/01/20 05:23:06;;;;;;;23.90;13.27;;;;;8.20;100953.00;;;;5050395;28;20207;-76
2023/01/20 05:25:34;;;;;;;23.60;12.52;;;;;8.20;100961.00;;;;5057319;28;20199;-75
2023/01/20 05:28:01;;;;;;;22.77;12.25;;;;;8.20;100957.00;;;;5064564;28;20195;-76
2023/01/20 05:30:30;;;;;;;23.70;12.98;;;;;8.20;100955.00;;;;5063778;28;20199;-76
2023/01/20 05:32:57;;;;;;;23.00;13.27;;;;;8.20;100952.00;;;;5052222;28;20215;-76
2023/01/20 05:35:24;;;;;;;24.17;12.93;;;;;8.20;100948.00;;;;5059912;28;20646;-76
2023/01/20 05:37:54;;;;;;;25.92;14.60;;;;;8.20;100955.00;;;;5059657;28;20550;-76
2023/01/20 05:40:22;;;;;;;24.60;13.52;;;;;8.20;100950.00;;;;5068026;28;20203;-76
2023/01/20 05:42:49;;;;;;;23.63;12.88;;;;;8.20;100945.00;;;;5068754;28;20214;-76
2023/01/20 05:45:16;;;;;;;26.80;15.15;;;;;8.20;100953.00;;;;5062053;28;20202;-76
2023/01/20 05:47:45;;;;;;;27.40;15.30;;;;;8.20;100952.00;;;;5060337;28;20231;-76
2023/01/20 05:50:13;;;;;;;26.63;14.65;;;;;8.20;100942.00;;;;5064971;28;20635;-75
2023/01/20 05:52:40;;;;;;;26.13;13.48;;;;;8.20;100952.00;;;;5048164;28;20206;-76
2023/01/20 05:55:08;;;;;;;26.38;14.32;;;;;8.20;100958.00;;;;5056968;28;20195;-76
2023/01/20 05:57:35;;;;;;;26.70;13.98;;;;;8.20;100948.00;;;;5068535;28;20210;-76
2023/01/20 06:00:03;;;;;;;25.65;13.73;;;;;8.20;100950.00;;;;5060501;28;20199;-75
2023/01/20 06:02:31;;;;;;;30.90;15.85;;;;;8.10;100961.00;;;;5048655;28;20200;-76
2023/01/20 06:05:00;;;;;;;28.60;15.10;;;;;8.10;100965.00;;;;5051110;28;20676;-76
2023/01/20 06:07:27;;;;;;;25.50;14.52;;;;;8.20;100970.00;;;;5066612;28;20223;-76
2023/01/20 06:09:55;;;;;;;25.63;14.15;;;;;8.20;100970.00;;;;5048681;28;20286;-76
2023/01/20 06:12:22;;;;;;;25.98;14.43;;;;;8.20;100978.00;;;;5050660;28;20198;-76
2023/01/20 06:14:50;;;;;;;30.55;14.93;;;;;8.20;100985.00;;;;5051755;28;20199;-76
2023/01/20 06:17:17;;;;;;;25.73;13.25;;;;;8.20;100975.00;;;;5068288;28;20207;-75
2023/01/20 06:19:44;;;;;;;27.13;13.93;;;;;8.20;100980.00;;;;5054379;28;20204;-76
2023/01/20 06:22:14;;;;;;;22.92;13.30;;;;;8.20;100987.00;;;;5048350;28;20199;-77
2023/01/20 06:24:42;;;;;;;27.33;14.07;;;;;8.20;100986.00;;;;5049921;28;20195;-76
2023/01/20 06:27:10;;;;;;;27.10;12.85;;;;;8.20;100983.00;;;;5068549;28;20223;-76
2023/01/20 06:29:37;;;;;;;21.00;11.63;;;;;8.20;100990.00;;;;5061044;28;20307;-76
2023/01/20 06:32:04;;;;;;;21.33;11.57;;;;;8.20;100985.00;;;;5052007;28;20207;-76
2023/01/20 06:34:32;;;;;;;23.42;11.63;;;;;8.20;100971.00;;;;5048538;28;20540;-76
2023/01/20 06:37:00;;;;;;;20.75;10.38;;;;;8.30;100983.00;;;;5047641;28;20204;-76
2023/01/20 06:39:29;;;;;;;16.67;8.60;;;;;8.30;100985.00;;;;5059618;28;20230;-76
2023/01/20 06:41:58;;;;;;;17.80;9.82;;;;;8.30;100985.00;;;;5061446;28;20652;-76
2023/01/20 06:44:26;;;;;;;16.30;8.85;;;;;8.30;100981.00;;;;5063811;28;20203;-76
2023/01/20 06:46:53;;;;;;;15.82;8.43;;;;;8.30;100985.00;;;;5055753;28;20234;-76
2023/01/20 06:49:21;;;;;;;18.15;10.27;;;;;8.30;100985.00;;;;5060351;28;20206;-77
2023/01/20 06:51:48;;;;;;;18.58;9.65;;;;;8.40;100986.00;;;;5050966;28;20666;-77
2023/01/20 06:54:15;;;;;;;17.48;9.43;;;;;8.40;100987.00;;;;5058119;28;20871;-77
2023/01/20 06:56:44;;;;;;;34.40;19.15;;;;;8.30;100984.00;;;;5054311;28;20490;-76
2023/01/20 06:59:12;;;;;;;20.35;10.00;;;;;8.40;100986.00;;;;5052724;28;20715;-77
2023/01/20 07:01:40;;;;;;;15.75;8.73;;;;;8.40;100992.00;;;;5045384;28;20210;-77
2023/01/20 07:04:08;;;;;;;15.63;8.52;;;;;8.40;100993.00;;;;5047827;28;20563;-77
2023/01/20 07:06:38;;;;;;;18.42;8.75;;;;;8.40;100991.00;;;;5057117;28;20292;-77
2023/01/20 07:09:07;;;;;;;14.82;8.88;;;;;8.40;100995.00;;;;5051086;28;20623;-77
2023/01/20 07:11:34;;;;;;;15.88;9.75;;;;;8.40;100991.00;;;;5047878;28;20226;-78
2023/01/20 07:14:04;;;;;;;18.05;10.02;;;;;8.40;100993.00;;;;5047480;28;20246;-77
2023/01/20 07:16:31;;;;;;;20.83;11.30;;;;;8.50;100993.00;;;;5048436;28;20207;-77
2023/01/20 07:18:59;;;;;;;17.38;9.68;;;;;8.40;100998.00;;;;5047984;28;20212;-77
2023/01/20 07:21:26;;;;;;;18.98;10.57;;;;;8.50;100991.00;;;;5059002;28;20201;-78
2023/01/20 07:23:54;;;;;;;19.10;11.02;;;;;8.50;101001.00;;;;5049277;28;20207;-78
2023/01/20 07:26:23;;;;;;;21.63;11.38;;;;;8.50;101001.00;;;;5048774;28;20290;-77
2023/01/20 07:28:50;;;;;;;21.88;11.93;;;;;8.50;100996.00;;;;5052163;28;20203;-78
2023/01/20 07:31:21;;;;;;;22.75;11.88;;;;;8.50;101004.00;;;;5050602;28;20295;-78
2023/01/20 07:33:49;;;;;;;23.23;12.82;;;;;8.50;101008.00;;;;5053939;28;20203;-78
2023/01/20 07:36:17;;;;;;;21.52;12.05;;;;;8.50;101006.00;;;;5051609;28;20211;-78
2023/01/20 07:38:48;;;;;;;23.23;12.90;;;;;8.50;101010.00;;;;5051457;28;20378;-78
2023/01/20 07:41:15;;;;;;;24.45;13.05;;;;;8.50;101012.00;;;;5050830;28;20204;-78
2023/01/20 07:43:43;;;;;;;27.30;14.63;;;;;8.50;101005.00;;;;5058595;28;20203;-78
2023/01/20 07:46:11;;;;;;;24.38;12.45;;;;;8.50;101012.00;;;;5062265;28;20321;-78
2023/01/20 07:48:40;;;;;;;24.27;14.23;;;;;8.50;101020.00;;;;5050670;28;20203;-78
2023/01/20 07:51:09;;;;;;;24.30;13.30;;;;;8.50;101013.00;;;;5052787;28;20660;-78
2023/01/20 07:53:38;;;;;;;20.17;11.98;;;;;8.50;101017.00;;;;5062453;28;20199;-78
2023/01/20 07:56:07;;;;;;;23.38;12.07;;;;;8.50;101012.00;;;;5048225;28;20249;-78
2023/01/20 07:58:35;;;;;;;19.77;11.73;;;;;8.50;101013.00;;;;5062800;28;20191;-78
2023/01/20 08:01:10;;;;;;;21.23;11.63;;;;;8.40;101019.00;;;;5052392;28;20208;-78
2023/01/20 08:03:39;;;;;;;21.98;11.88;;;;;8.50;101030.00;;;;5052593;28;20209;-78
2023/01/20 08:06:08;;;;;;;20.52;11.80;;;;;8.50;101023.00;;;;5049934;28;20191;-78
2023/01/20 08:08:36;;;;;;;27.25;12.98;;;;;8.50;101040.00;;;;5052376;28;20231;-78
2023/01/20 08:11:05;;;;;;;19.50;11.18;;;;;8.50;101036.00;;;;5049954;28;20677;-78
2023/01/20 08:13:33;;;;;;;21.65;11.38;;;;;8.50;101034.00;;;;5049249;28;20208;-78
2023/01/20 08:16:02;;;;;;;24.80;11.90;;;;;8.50;101039.00;;;;5055942;28;20748;-78
2023/01/20 08:18:31;;;;;;;22.95;12.25;;;;;8.50;101040.00;;;;5061344;28;20196;-78
2023/01/20 08:20:59;;;;;;;22.92;11.70;;;;;8.50;101041.00;;;;5058799;28;20636;-78
2023/01/20 08:23:27;;;;;;;21.05;11.35;;;;;8.50;101049.00;;;;5067976;28;20195;-78
2023/01/20 08:25:58;;;;;;;20.35;11.90;;;;;8.50;101047.00;;;;5068413;28;20207;-78
2023/01/20 08:28:26;;;;;;;20.83;10.77;;;;;8.60;101042.00;;;;5069847;28;20306;-78
2023/01/20 08:30:54;;;;;;;19.70;11.32;;;;;8.60;101046.00;;;;5058398;28;20562;-78
2023/01/20 08:33:21;;;;;;;22.02;12.30;;;;;8.60;101041.00;;;;5051063;28;20202;-78
2023/01/20 08:35:48;;;;;;;17.92;10.90;;;;;8.60;101042.00;;;;5053199;28;20200;-78
2023/01/20 08:38:17;;;;;;;21.30;11.10;;;;;8.60;101050.00;;;;5052610;28;20191;-78
2023/01/20 08:40:44;;;;;;;19.75;11.63;;;;;8.60;101048.00;;;;5063638;28;20628;-78
2023/01/20 08:43:14;;;;;;;20.65;12.10;;;;;8.60;101048.00;;;;5051701;28;20230;-78
2023/01/20 08:45:42;;;;;;;19.50;11.18;;;;;8.60;101050.00;;;;5055275;28;20196;-78
2023/01/20 08:48:09;;;;;;;17.80;10.63;;;;;8.60;101056.00;;;;5052214;28;20241;-78
2023/01/20 08:50:37;;;;;;;17.70;10.43;;;;;8.60;101053.00;;;;5065082;28;20208;-78
2023/01/20 08:53:04;;;;;;;19.48;11.15;;;;;8.70;101051.00;;;;5051144;28;20200;-78
2023/01/20 08:55:33;;;;;;;18.70;10.32;;;;;8.70;101055.00;;;;5050084;28;20206;-78
2023/01/20 08:58:01;;;;;;;16.73;9.70;;;;;8.70;101068.00;;;;5061302;28;20206;-78
2023/01/20 09:00:29;;;;;;;15.40;9.50;;;;;8.70;101074.00;;;;5065745;28;20195;-78
2023/01/20 09:02:56;;;;;;;15.02;9.07;;;;;8.70;101076.00;;;;5059817;28;20282;-78
2023/01/20 09:05:23;;;;;;;13.10;8.73;;;;;8.70;101070.00;;;;5049552;28;20195;-78
2023/01/20 09:07:50;;;;;;;15.00;9.68;;;;;8.70;101080.00;;;;5050049;28;20226;-78
2023/01/20 09:10:18;;;;;;;13.88;8.85;;;;;8.70;101074.00;;;;5056433;28;20199;-78
2023/01/20 09:12:47;;;;;;;14.40;8.52;;;;;8.70;101074.00;;;;5053138;28;20582;-78
2023/01/20 09:15:14;;;;;;;12.40;8.05;;;;;8.70;101075.00;;;;5052081;28;20227;-78
2023/01/20 09:17:42;;;;;;;12.77;8.02;;;;;8.70;101082.00;;;;5049980;28;20206;-78
2023/01/20 09:20:10;;;;;;;12.40;8.15;;;;;8.70;101081.00;;;;5059839;28;20203;-78
2023/01/20 09:22:39;;;;;;;12.73;8.60;;;;;8.70;101085.00;;;;5055676;28;20208;-78
2023/01/20 09:25:07;;;;;;;11.60;7.38;;;;;8.70;101080.00;;;;5053561;28;20200;-78
2023/01/20 09:27:34;;;;;;;11.15;7.50;;;;;8.60;101082.00;;;;5058428;28;20303;-77
2023/01/20 09:30:04;;;;;;;13.38;7.65;;;;;8.60;101085.00;;;;5049488;28;20212;-78
2023/01/20 09:32:32;;;;;;;12.68;7.78;;;;;8.70;101084.00;;;;5050726;28;20752;-78
2023/01/20 09:34:59;;;;;;;13.38;8.60;;;;;8.70;101089.00;;;;5051736;28;20572;-78
2023/01/20 09:46:07;;;;;;;11.10;7.03;;;;;8.70;101095.00;;;;5058922;28;20708;-79
2023/01/20 09:54:27;;;;;;;10.27;7.10;;;;;8.70;101114.00;;;;5060006;28;20253;-78
2023/01/20 09:56:59;;;;;;;10.35;6.95;;;;;8.80;101111.00;;;;5050312;28;20282;-78
2023/01/20 09:59:32;;;;;;;12.20;7.18;;;;;8.70;101116.00;;;;5062150;28;20509;-78
2023/01/20 10:02:04;;;;;;;11.38;7.22;;;;;8.70;101127.00;;;;5051873;28;20567;-78
2023/01/20 10:04:36;;;;;;;11.45;7.57;;;;;8.80;101124.00;;;;5054401;28;20203;-78
2023/01/20 10:07:08;;;;;;;10.82;7.32;;;;;8.80;101125.00;;;;5051739;28;20296;-78
2023/01/20 10:09:41;;;;;;;10.02;7.57;;;;;8.80;101129.00;;;;5053183;28;20193;-78
2023/01/20 10:12:14;;;;;;;11.65;7.72;;;;;8.80;101134.00;;;;5047029;28;20207;-78
2023/01/20 10:14:45;;;;;;;10.88;6.82;;;;;8.90;101133.00;;;;5054954;28;20215;-78
2023/01/20 10:17:20;;;;;;;11.05;7.00;;;;;8.90;101136.00;;;;5052601;28;20676;-78
2023/01/20 10:19:55;;;;;;;11.77;7.63;;;;;8.90;101134.00;;;;5054625;28;20191;-78
2023/01/20 10:22:29;;;;;;;10.25;7.10;;;;;8.90;101138.00;;;;5050898;28;20207;-78
2023/01/20 10:25:05;;;;;;;12.52;7.95;;;;;8.90;101141.00;;;;5050297;28;20207;-78
2023/01/20 10:27:35;;;;;;;10.93;7.22;;;;;9.00;101153.00;;;;5048187;28;20223;-79
2023/01/20 10:30:08;;;;;;;10.95;6.75;;;;;9.00;101154.00;;;;5051502;28;20199;-79
2023/01/20 10:32:38;;;;;;;9.38;6.47;;;;;9.00;101154.00;;;;5051142;28;20195;-79
2023/01/20 10:35:14;;;;;;;10.57;6.72;;;;;9.00;101159.00;;;;5055516;28;20523;-79
2023/01/20 10:37:41;;;;;;;10.38;6.93;;;;;9.00;101153.00;;;;5046786;28;20620;-80
2023/01/20 10:40:19;;;;;;;11.48;7.25;;;;;8.90;101161.00;;;;5051964;28;20620;-79
2023/01/20 10:42:49;;;;;;;9.70;6.80;;;;;9.00;101153.00;;;;5053084;28;20730;-79
2023/01/20 10:45:24;;;;;;;10.85;7.25;;;;;9.00;101150.00;;;;5052344;28;20726;-80
2023/01/20 10:48:03;;;;;;;10.93;7.03;;;;;9.00;101148.00;;;;5062869;28;20242;-79
2023/01/20 10:50:52;;;;;;;10.40;6.97;;;;;8.90;101151.00;;;;5046392;28;20195;-79
2023/01/20 10:53:35;;;;;;;10.57;7.03;;;;;8.90;101148.00;;;;5048494;28;20202;-79
2023/01/20 10:56:19;;;;;;;11.25;6.55;;;;;8.90;101147.00;;;;5048163;28;20215;-79
2023/01/20 10:58:47;;;;;;;10.10;6.60;;;;;9.00;101140.00;;;;5053058;28;20195;-79
2023/01/20 11:01:17;;;;;;;13.40;7.82;;;;;9.00;101140.00;;;;5053911;28;20187;-79
2023/01/20 11:03:49;;;;;;;9.38;6.70;;;;;8.90;101148.00;;;;5050644;28;20588;-80
2023/01/20 11:06:19;;;;;;;10.63;7.22;;;;;8.90;101146.00;;;;5062181;28;20203;-79
2023/01/20 11:08:47;;;;;;;8.80;5.90;;;;;8.90;101147.00;;;;5058478;28;20573;-79
2023/01/20 11:11:17;;;;;;;10.57;7.35;;;;;8.90;101141.00;;;;5064666;28;20199;-79
2023/01/20 11:13:44;;;;;;;10.77;7.05;;;;;8.90;101146.00;;;;5062321;28;20198;-79
2023/01/20 11:16:16;;;;;;;8.57;6.32;;;;;8.90;101149.00;;;;5059358;28;20196;-79
2023/01/20 11:18:56;;;;;;;9.75;6.50;;;;;8.80;101144.00;;;;5050069;28;20377;-80
2023/01/20 11:21:25;;;;;;;8.70;5.82;;;;;8.90;101144.00;;;;5050146;28;20196;-79
2023/01/20 11:23:55;;;;;;;8.98;6.22;;;;;8.90;101140.00;;;;5056537;28;20192;-80
2023/01/20 11:26:24;;;;;;;9.70;6.82;;;;;8.90;101140.00;;;;5054295;28;20322;-79
2023/01/20 11:28:54;;;;;;;8.57;6.22;;;;;8.90;101131.00;;;;5049486;28;20713;-78
2023/01/20 11:31:34;;;;;;;9.63;6.55;;;;;8.90;101131.00;;;;5060499;28;20721;-78
2023/01/20 11:34:20;;;;;;;10.43;7.03;;;;;8.90;101129.00;;;;5051388;28;20203;-80
2023/01/20 11:36:47;;;;;;;8.68;6.00;;;;;8.90;101134.00;;;;5050507;28;20223;-80
2023/01/20 11:39:27;;;;;;;9.57;6.60;;;;;8.80;101128.00;;;;5050253;28;20203;-78
2023/01/20 11:42:10;;;;;;;8.90;6.07;;;;;8.70;101135.00;;;;5051497;28;20596;-78
2023/01/20 11:44:42;;;;;;;8.43;6.00;;;;;8.80;101136.00;;;;5050057;28;20198;-78
2023/01/20 11:47:31;;;;;;;10.60;7.07;;;;;8.70;101134.00;;;;5048921;28;20281;-78
2023/01/20 11:50:25;;;;;;;9.15;6.53;;;;;8.80;101145.00;;;;5044404;28;20211;-78
2023/01/20 11:52:52;;;;;;;10.60;6.97;;;;;8.90;101144.00;;;;5048066;28;20534;-79
2023/01/20 11:55:22;;;;;;;11.02;7.47;;;;;8.90;101135.00;;;;5055931;28;20205;-78
2023/01/20 11:57:53;;;;;;;11.50;6.80;;;;;8.90;101140.00;;;;5067489;28;20681;-78
2023/01/20 12:00:33;;;;;;;10.23;7.00;;;;;8.80;101144.00;;;;5069563;28;20198;-78
2023/01/20 12:03:02;;;;;;;10.90;6.82;;;;;8.90;101134.00;;;;5069976;28;20198;-78
2023/01/20 12:05:38;;;;;;;9.35;7.10;;;;;8.90;101138.00;;;;5060428;28;20580;-79
2023/01/20 12:08:11;;;;;;;11.35;7.40;;;;;8.90;101135.00;;;;5050151;28;20223;-78
2023/01/20 12:10:40;;;;;;;9.15;6.82;;;;;9.00;101134.00;;;;5050802;28;20195;-78
2023/01/20 12:13:17;;;;;;;10.48;7.10;;;;;9.00;101125.00;;;;5050016;28;20203;-78
2023/01/20 12:15:51;;;;;;;9.43;6.75;;;;;9.00;101135.00;;;;5050791;28;20557;-78
2023/01/20 12:18:25;;;;;;;11.00;7.28;;;;;9.10;101147.00;;;;5057004;28;20717;-79
2023/01/20 12:21:03;;;;;;;9.95;6.50;;;;;9.00;101138.00;;;;5050478;28;20203;-78
2023/01/20 12:23:44;;;;;;;10.43;6.93;;;;;9.10;101142.00;;;;5050858;28;20223;-80
2023/01/20 12:26:14;;;;;;;9.02;6.00;;;;;9.10;101143.00;;;;5050018;28;20661;-79
2023/01/20 12:28:47;;;;;;;9.98;7.20;;;;;9.10;101148.00;;;;5049927;28;20220;-79
2023/01/20 12:31:19;;;;;;;10.43;7.18;;;;;9.10;101152.00;;;;5050694;28;20195;-79
2023/01/20 12:33:49;;;;;;;11.48;7.55;;;;;9.10;101153.00;;;;5053417;28;20677;-79
2023/01/20 12:36:36;;;;;;;10.30;6.88;;;;;9.10;101154.00;;;;5070705;28;20199;-79